TimeEDT,TemperatureF,Dew PointF,Humidity,Sea Level PressureIn,VisibilityMPH,Wind Direction,Wind SpeedMPH,Gust SpeedMPH,PrecipitationIn,Events,Conditions,WindDirDegrees,DateUTC
12:56 AM,75.9,70.0,82,30.11,10.0,ESE,6.9,-,N/A,,Partly Cloudy,120,2013-06-01 04:56:00
1:56 AM,75.0,70.0,84,30.09,10.0,ESE,8.1,-,N/A,,Partly Cloudy,120,2013-06-01 05:56:00
2:56 AM,73.0,70.0,90,30.07,10.0,SE,5.8,-,N/A,,Partly Cloudy,130,2013-06-01 06:56:00
3:56 AM,70.0,68.0,93,30.06,10.0,Calm,Calm,-,N/A,,Partly Cloudy,0,2013-06-01 07:56:00
4:56 AM,69.1,66.9,93,30.07,10.0,NNE,3.5,-,N/A,,Partly Cloudy,20,2013-06-01 08:56:00
5:56 AM,69.1,66.9,93,30.09,9.0,Calm,Calm,-,N/A,,Scattered Clouds,0,2013-06-01 09:56:00
6:56 AM,69.1,66.9,93,30.09,9.0,Calm,Calm,-,N/A,,Scattered Clouds,0,2013-06-01 10:56:00
7:56 AM,75.9,71.1,85,30.11,10.0,East,5.8,-,N/A,,Partly Cloudy,100,2013-06-01 11:56:00
8:56 AM,80.1,70.0,71,30.11,10.0,East,11.5,-,N/A,,Scattered Clouds,100,2013-06-01 12:56:00
9:04 AM,78.8,69.8,74,30.11,10.0,East,10.4,-,N/A,,Mostly Cloudy,100,2013-06-01 13:04:00
9:56 AM,82.0,68.0,62,30.11,10.0,ESE,16.1,21.9,N/A,,Mostly Cloudy,120,2013-06-01 13:56:00
10:11 AM,82.4,69.8,66,30.10,10.0,ESE,15.0,20.7,N/A,,Mostly Cloudy,120,2013-06-01 14:11:00
10:56 AM,84.0,68.0,58,30.10,10.0,East,11.5,19.6,N/A,,Mostly Cloudy,100,2013-06-01 14:56:00
11:56 AM,84.0,69.1,61,30.10,10.0,ESE,13.8,21.9,N/A,,Mostly Cloudy,110,2013-06-01 15:56:00
12:56 PM,84.0,69.1,61,30.09,10.0,SE,12.7,20.7,N/A,,Mostly Cloudy,130,2013-06-01 16:56:00
1:56 PM,84.0,66.9,56,30.09,10.0,East,15.0,23.0,N/A,,Mostly Cloudy,100,2013-06-01 17:56:00
2:56 PM,84.0,68.0,58,30.07,10.0,East,15.0,20.7,N/A,,Mostly Cloudy,80,2013-06-01 18:56:00
3:56 PM,84.9,69.1,59,30.06,10.0,ESE,16.1,-,N/A,,Scattered Clouds,110,2013-06-01 19:56:00
4:56 PM,84.0,69.1,61,30.05,10.0,East,10.4,18.4,N/A,,Scattered Clouds,90,2013-06-01 20:56:00
5:56 PM,82.9,70.0,65,30.04,10.0,East,13.8,19.6,N/A,,Scattered Clouds,80,2013-06-01 21:56:00
6:56 PM,80.1,70.0,71,30.04,10.0,East,16.1,20.7,N/A,,Mostly Cloudy,100,2013-06-01 22:56:00
7:56 PM,78.1,70.0,76,30.04,10.0,East,11.5,-,N/A,,Scattered Clouds,100,2013-06-01 23:56:00
8:56 PM,78.1,71.1,79,30.05,10.0,ESE,10.4,-,N/A,,Mostly Cloudy,120,2013-06-02 00:56:00
9:56 PM,77.0,71.1,82,30.07,10.0,ESE,9.2,-,N/A,,Scattered Clouds,120,2013-06-02 01:56:00
10:56 PM,78.1,71.1,79,30.08,10.0,SE,8.1,-,N/A,,Mostly Cloudy,140,2013-06-02 02:56:00
11:15 PM,78.8,71.6,78,30.08,10.0,SE,10.4,-,N/A,,Mostly Cloudy,140,2013-06-02 03:15:00
11:44 PM,77.0,71.6,83,30.08,10.0,SSW,11.5,-,N/A,,Overcast,210,2013-06-02 03:44:00
11:56 PM,75.0,72.0,90,30.08,9.0,South,6.9,-,0.00,Rain,Light Rain,190,2013-06-02 03:56:00